Time;durP1;ratioP1;P1;durP2;ratioP2;P2;SDS_P1;SDS_P2;PMS_P1;PMS_P2;Temp;Humidity;BMP_temperature;BMP_pressure;BME280_temperature;BME280_humidity;BME280_pressure;Samples;Min_cycle;Max_cycle;Signal;HPM_P1;HPM_P2
2022/01/04 00:00:57;;;;;;;12.18;6.68;;;;;;;17.67;65.39;98808.34;3098076;28;20086;-55
2022/01/04 00:02:29;;;;;;;10.43;6.32;;;;;;;17.66;65.49;98815.53;3094904;28;20042;-56
2022/01/04 00:04:01;;;;;;;10.88;6.68;;;;;;;17.66;65.29;98810.19;3097217;28;20049;-54
2022/01/04 00:05:34;;;;;;;10.45;6.72;;;;;;;17.65;65.37;98817.41;3095960;28;20124;-56
2022/01/04 00:07:06;;;;;;;13.73;7.30;;;;;;;17.64;65.46;98810.38;3098760;28;20432;-57
2022/01/04 00:08:38;;;;;;;13.57;7.68;;;;;;;17.64;65.36;98813.06;3098925;28;20488;-55
2022/01/04 00:10:10;;;;;;;11.40;6.80;;;;;;;17.63;65.40;98808.75;3097867;28;20160;-54
2022/01/04 00:11:57;;;;;;;10.80;6.68;;;;;;;17.64;65.25;98814.94;3097986;28;20724;-55
2022/01/04 00:13:28;;;;;;;12.18;7.03;;;;;;;17.63;65.41;98813.25;3096283;28;20045;-54
2022/01/04 00:15:00;;;;;;;10.35;6.22;;;;;;;17.62;65.34;98817.78;3098372;28;20046;-55
2022/01/04 00:16:32;;;;;;;9.55;5.88;;;;;;;17.60;65.46;98805.59;3094891;28;20054;-56
2022/01/04 00:18:04;;;;;;;11.43;7.03;;;;;;;17.59;65.33;98807.44;3093927;28;20046;-56
2022/01/04 00:19:36;;;;;;;10.48;6.90;;;;;;;17.59;65.39;98804.78;3096238;28;20126;-55
2022/01/04 00:21:09;;;;;;;8.50;5.60;;;;;;;17.59;65.34;98810.13;3098664;28;20058;-56
2022/01/04 00:22:41;;;;;;;10.77;6.88;;;;;;;17.58;65.26;98810.34;3101038;28;20050;-56
2022/01/04 00:24:13;;;;;;;12.25;7.38;;;;;;;17.56;65.43;98805.16;3090717;28;20096;-56
2022/01/04 00:25:46;;;;;;;12.13;6.53;;;;;;;17.56;65.50;98805.16;3096426;28;20053;-55
2022/01/04 00:27:18;;;;;;;9.95;6.60;;;;;;;17.56;65.51;98796.28;3089607;28;20050;-55
2022/01/04 00:28:50;;;;;;;11.02;6.72;;;;;;;17.55;65.47;98792.78;3098861;28;20427;-55
2022/01/04 00:30:24;;;;;;;11.60;7.13;;;;;;;17.54;65.36;98791.09;3096256;28;20800;-55
2022/01/04 00:31:55;;;;;;;10.15;6.30;;;;;;;17.54;65.51;98788.41;3093748;28;20057;-55
2022/01/04 00:33:27;;;;;;;9.50;6.82;;;;;;;17.53;65.44;98792.13;3095948;28;20058;-53
2022/01/04 00:34:58;;;;;;;10.88;6.88;;;;;;;17.52;65.43;98793.13;3095783;28;20107;-55
2022/01/04 00:36:33;;;;;;;8.15;5.38;;;;;;;17.52;65.45;98786.94;3096750;28;20535;-55
2022/01/04 00:38:05;;;;;;;12.50;6.38;;;;;;;17.50;65.46;98787.16;3094536;28;20583;-55
2022/01/04 00:39:37;;;;;;;10.07;7.43;;;;;;;17.49;65.47;98782.81;3095258;28;20049;-54
2022/01/04 00:41:10;;;;;;;11.77;8.15;;;;;;;17.49;65.43;98784.66;3097696;28;20047;-55
2022/01/04 00:42:41;;;;;;;9.75;6.35;;;;;;;17.46;65.43;98780.50;3100107;28;20054;-56
2022/01/04 00:44:13;;;;;;;11.10;7.10;;;;;;;17.47;65.50;98784.88;3092840;28;20042;-54
2022/01/04 00:45:45;;;;;;;10.65;6.47;;;;;;;17.46;65.38;98787.72;3097610;28;20086;-56
2022/01/04 00:47:20;;;;;;;9.65;6.65;;;;;;;17.45;65.55;98786.09;3089768;28;20054;-55
2022/01/04 00:49:09;;;;;;;9.85;6.60;;;;;;;17.43;65.48;98784.41;3096221;28;20455;-56
2022/01/04 00:50:40;;;;;;;9.88;5.72;;;;;;;17.43;65.44;98783.56;3097594;28;20180;-55
2022/01/04 00:52:16;;;;;;;12.95;6.95;;;;;;;17.43;65.49;98786.25;3100759;28;20536;-56
2022/01/04 00:53:48;;;;;;;8.95;6.47;;;;;;;17.41;65.55;98780.25;3098550;28;20425;-55
2022/01/04 00:55:20;;;;;;;9.80;6.50;;;;;;;17.40;65.44;98779.44;3098302;28;20042;-55
2022/01/04 00:56:52;;;;;;;9.52;6.15;;;;;;;17.39;65.49;98780.47;3096767;28;20082;-58
2022/01/04 00:58:24;;;;;;;10.45;6.72;;;;;;;17.39;65.36;98782.31;3094819;28;20053;-56
2022/01/04 00:59:56;;;;;;;9.90;6.03;;;;;;;17.37;65.53;98781.66;3094715;28;20054;-55
2022/01/04 01:01:28;;;;;;;9.15;5.85;;;;;;;17.37;65.65;98779.00;3093065;28;20112;-56
2022/01/04 01:03:00;;;;;;;9.38;5.50;;;;;;;17.35;65.59;98781.84;3095318;28;20710;-55
2022/01/04 01:04:32;;;;;;;10.57;6.20;;;;;;;17.37;65.39;98779.00;3093727;28;20054;-55
2022/01/04 01:06:04;;;;;;;10.35;6.13;;;;;;;17.35;65.48;98763.09;3096391;28;20042;-56
2022/01/04 01:07:37;;;;;;;10.70;7.85;;;;;;;17.35;65.60;98764.94;3095210;28;20618;-55
2022/01/04 01:09:09;;;;;;;10.45;5.85;;;;;;;17.34;65.59;98771.34;3094422;28;20054;-52
2022/01/04 01:10:43;;;;;;;9.77;6.60;;;;;;;17.34;65.63;98772.16;3095561;28;20095;-55
2022/01/04 01:12:15;;;;;;;8.27;6.65;;;;;;;17.33;65.48;98777.72;3094442;28;20041;-55
2022/01/04 01:13:47;;;;;;;10.05;6.82;;;;;;;17.33;65.47;98775.88;3096059;28;20057;-55
2022/01/04 01:15:18;;;;;;;12.10;7.22;;;;;;;17.31;65.45;98771.72;3094500;28;20077;-54
2022/01/04 01:16:50;;;;;;;10.48;6.45;;;;;;;17.30;65.72;98770.91;3099605;28;20053;-57
2022/01/04 01:18:22;;;;;;;10.68;7.70;;;;;;;17.29;65.57;98768.41;3097924;28;21040;-55
2022/01/04 01:19:54;;;;;;;9.82;5.80;;;;;;;17.29;65.59;98768.41;3092778;28;20068;-55
2022/01/04 01:21:26;;;;;;;7.55;5.35;;;;;;;17.29;65.56;98760.34;3094956;28;20101;-55
2022/01/04 01:22:58;;;;;;;11.38;6.47;;;;;;;17.26;65.65;98766.09;3096495;28;20744;-56
2022/01/04 01:24:30;;;;;;;10.23;6.28;;;;;;;17.27;65.50;98762.38;3093483;28;20078;-56
2022/01/04 01:26:03;;;;;;;10.65;6.90;;;;;;;17.26;65.57;98768.78;3095748;28;20050;-56
2022/01/04 01:27:35;;;;;;;9.45;5.68;;;;;;;17.25;65.63;98769.81;3096328;28;20054;-55
2022/01/04 01:29:07;;;;;;;9.02;6.05;;;;;;;17.24;65.52;98768.13;3099634;28;20052;-56
2022/01/04 01:30:41;;;;;;;11.93;8.02;;;;;;;17.25;65.60;98764.44;3097814;28;20050;-53
2022/01/04 01:32:13;;;;;;;14.68;7.15;;;;;;;17.24;65.58;98758.22;3092931;28;20060;-56
2022/01/04 01:33:45;;;;;;;9.50;5.88;;;;;;;17.23;65.64;98755.75;3096636;28;20057;-53
2022/01/04 01:35:16;;;;;;;9.45;6.10;;;;;;;17.20;65.59;98763.16;3094395;28;20054;-55
2022/01/04 01:36:48;;;;;;;10.88;7.57;;;;;;;17.20;65.60;98767.69;3098637;28;20054;-55
2022/01/04 01:38:22;;;;;;;8.75;6.22;;;;;;;17.21;65.61;98774.69;3095011;28;20105;-56
2022/01/04 01:39:54;;;;;;;9.45;6.30;;;;;;;17.19;65.66;98772.22;3092960;28;20101;-55
2022/01/04 01:41:25;;;;;;;8.00;5.70;;;;;;;17.20;65.63;98773.88;3095555;28;20042;-56
2022/01/04 01:42:57;;;;;;;10.20;6.07;;;;;;;17.21;65.53;98755.94;3095246;28;20054;-56
2022/01/04 01:44:31;;;;;;;6.68;5.35;;;;;;;17.19;65.59;98758.81;3093275;28;20053;-54
2022/01/04 01:46:03;;;;;;;10.13;6.15;;;;;;;17.19;65.53;98753.47;3096722;28;20493;-54
2022/01/04 01:47:37;;;;;;;6.75;5.45;;;;;;;17.17;65.62;98763.53;3091744;28;20049;-54
2022/01/04 01:49:08;;;;;;;10.57;6.25;;;;;;;17.18;65.57;98759.00;3093830;28;20069;-55
2022/01/04 01:50:40;;;;;;;10.60;6.30;;;;;;;17.17;65.60;98766.22;3094582;28;20081;-55
2022/01/04 01:52:12;;;;;;;9.35;5.88;;;;;;;17.17;65.60;98765.41;3095702;28;20058;-55
2022/01/04 01:53:46;;;;;;;10.93;6.32;;;;;;;17.14;65.64;98766.59;3095856;28;20477;-54
2022/01/04 01:55:20;;;;;;;11.73;6.63;;;;;;;17.13;65.55;98758.75;3095307;28;20058;-55
2022/01/04 01:56:52;;;;;;;6.82;5.40;;;;;;;17.14;65.56;98769.28;3092545;28;20049;-55
2022/01/04 01:58:24;;;;;;;12.15;6.55;;;;;;;17.15;65.64;98772.78;3095292;28;20100;-55
2022/01/04 01:59:56;;;;;;;8.95;6.15;;;;;;;17.12;65.67;98770.50;3094585;28;20077;-56
2022/01/04 02:01:27;;;;;;;8.95;6.30;;;;;;;17.11;65.60;98764.31;3096546;28;20065;-54
2022/01/04 02:02:59;;;;;;;8.38;6.30;;;;;;;17.11;65.54;98758.94;3094962;28;20334;-56
2022/01/04 02:04:31;;;;;;;8.30;5.35;;;;;;;17.11;65.46;98758.94;3087529;28;20050;-58
2022/01/04 02:06:03;;;;;;;8.23;5.85;;;;;;;17.10;65.57;98757.28;3096191;28;20042;-56
2022/01/04 02:07:40;;;;;;;7.13;5.30;;;;;;;17.09;65.51;98750.25;3098452;28;20046;-58
2022/01/04 02:09:13;;;;;;;8.57;6.10;;;;;;;17.08;65.53;98748.63;3094963;28;20270;-57
2022/01/04 02:10:46;;;;;;;9.63;6.00;;;;;;;17.08;65.66;98745.94;3095956;28;20050;-56
2022/01/04 02:12:18;;;;;;;8.13;5.88;;;;;;;17.08;65.59;98737.91;3095502;28;20053;-55
2022/01/04 02:13:50;;;;;;;8.95;6.05;;;;;;;17.07;65.65;98752.28;3099348;28;21102;-55
2022/01/04 02:15:25;;;;;;;8.65;6.57;;;;;;;17.07;65.53;98735.41;3094426;28;20061;-55
2022/01/04 02:16:57;;;;;;;8.05;5.85;;;;;;;17.06;65.63;98744.47;3097017;28;20054;-53
2022/01/04 02:18:29;;;;;;;11.73;6.93;;;;;;;17.06;65.51;98750.66;3094007;28;20062;-54
2022/01/04 02:20:06;;;;;;;9.43;5.55;;;;;;;17.06;65.65;98753.31;3092580;28;20057;-55
2022/01/04 02:21:38;;;;;;;7.35;5.47;;;;;;;17.03;65.56;98739.50;3075695;28;20082;-58
2022/01/04 02:23:10;;;;;;;9.15;6.65;;;;;;;17.03;65.73;98740.31;3081490;28;20222;-55
2022/01/04 02:24:41;;;;;;;13.10;6.72;;;;;;;17.01;65.62;98737.00;3083024;28;20051;-55
2022/01/04 02:26:14;;;;;;;10.63;6.90;;;;;;;17.01;65.59;98738.84;3084691;28;20104;-58
2022/01/04 02:27:46;;;;;;;8.52;6.25;;;;;;;17.00;65.71;98740.69;3099479;28;20045;-55
2022/01/04 02:29:17;;;;;;;10.63;6.72;;;;;;;17.02;65.54;98733.31;3098443;28;20050;-56
2022/01/04 02:30:49;;;;;;;8.98;5.78;;;;;;;17.00;65.49;98729.97;3100713;28;20056;-55
2022/01/04 02:32:21;;;;;;;7.13;5.32;;;;;;;16.98;65.56;98735.50;3098959;28;20058;-55
2022/01/04 02:33:53;;;;;;;9.30;6.55;;;;;;;16.98;65.70;98737.38;3097948;28;20053;-56
2022/01/04 02:35:30;;;;;;;10.10;6.18;;;;;;;16.99;65.50;98733.66;3094780;28;20046;-55
2022/01/04 02:37:02;;;;;;;8.65;5.45;;;;;;;16.96;65.69;98734.03;3097959;28;20065;-54
2022/01/04 02:38:34;;;;;;;9.80;5.70;;;;;;;16.97;65.54;98741.09;3091058;28;20453;-55
2022/01/04 02:40:07;;;;;;;9.38;6.10;;;;;;;16.96;65.56;98728.69;3099299;28;20051;-52
2022/01/04 02:41:39;;;;;;;10.95;5.93;;;;;;;16.96;65.74;98734.03;3099791;28;20050;-52
2022/01/04 02:43:11;;;;;;;8.05;5.82;;;;;;;16.94;65.66;98736.94;3098783;28;20054;-56
2022/01/04 02:44:42;;;;;;;9.15;6.18;;;;;;;16.95;65.79;98735.91;3096983;28;20061;-54
2022/01/04 02:46:14;;;;;;;8.27;5.10;;;;;;;16.93;65.77;98723.72;3097041;28;20053;-54
2022/01/04 02:47:46;;;;;;;8.23;5.53;;;;;;;16.92;65.60;98720.22;3097224;28;20058;-55
2022/01/04 02:49:18;;;;;;;8.98;5.22;;;;;;;16.93;65.68;98726.38;3095527;28;20054;-55
2022/01/04 02:50:51;;;;;;;10.43;6.72;;;;;;;16.92;65.60;98716.72;3100105;28;20057;-55
2022/01/04 02:52:24;;;;;;;9.32;4.95;;;;;;;16.92;65.73;98716.72;3097584;28;20045;-58
2022/01/04 02:53:56;;;;;;;7.82;5.30;;;;;;;16.90;65.71;98714.19;3096421;28;20064;-55
2022/01/04 02:55:28;;;;;;;7.63;4.80;;;;;;;16.90;65.69;98708.03;3095325;28;20064;-52
2022/01/04 02:56:59;;;;;;;12.32;6.93;;;;;;;16.90;65.59;98710.69;3088859;28;20531;-53
2022/01/04 02:58:31;;;;;;;8.23;5.40;;;;;;;16.88;65.72;98700.19;3098413;28;20663;-54
2022/01/04 03:00:07;;;;;;;8.07;5.65;;;;;;;16.88;65.66;98708.22;3099163;28;20485;-57
2022/01/04 03:01:39;;;;;;;10.27;7.03;;;;;;;16.87;65.57;98703.03;3089421;28;20054;-55
2022/01/04 03:03:11;;;;;;;8.00;5.32;;;;;;;16.86;65.78;98702.22;3083136;28;20047;-57
2022/01/04 03:04:43;;;;;;;7.90;5.47;;;;;;;16.85;65.71;98697.88;3080135;28;20083;-53
2022/01/04 03:06:16;;;;;;;7.75;6.13;;;;;;;16.86;65.68;98701.41;3092086;28;20084;-55
2022/01/04 03:07:48;;;;;;;9.68;5.40;;;;;;;16.86;65.71;98701.41;3099955;28;20057;-54
2022/01/04 03:09:20;;;;;;;8.40;5.47;;;;;;;16.85;65.71;98697.88;3098639;28;20638;-53
2022/01/04 03:10:52;;;;;;;8.27;5.53;;;;;;;16.84;65.66;98708.78;3096224;28;20057;-55
2022/01/04 03:12:24;;;;;;;9.30;5.10;;;;;;;16.84;65.64;98695.41;3096837;28;20468;-55
2022/01/04 03:13:56;;;;;;;9.52;5.88;;;;;;;16.83;65.73;98697.25;3096182;28;20618;-56
2022/01/04 03:15:28;;;;;;;9.55;5.60;;;;;;;16.81;65.67;98696.59;3099757;28;20064;-55
2022/01/04 03:17:00;;;;;;;8.20;6.50;;;;;;;16.80;65.68;98691.41;3099395;28;20672;-55
2022/01/04 03:18:32;;;;;;;9.40;6.47;;;;;;;16.80;65.76;98694.94;3098531;28;20054;-51
2022/01/04 03:20:05;;;;;;;7.80;5.57;;;;;;;16.79;65.68;98692.44;3101134;28;20057;-54
2022/01/04 03:21:41;;;;;;;8.18;5.30;;;;;;;16.78;65.73;98688.94;3098611;28;20077;-54
2022/01/04 03:23:13;;;;;;;8.98;6.55;;;;;;;16.78;65.80;98688.13;3099160;28;20054;-53
2022/01/04 03:24:45;;;;;;;10.07;5.95;;;;;;;16.77;65.70;98686.44;3096983;28;20524;-56
2022/01/04 03:26:15;;;;;;;10.43;6.93;;;;;;;16.77;65.65;98689.13;3097712;28;20057;-56
2022/01/04 03:27:47;;;;;;;9.80;6.10;;;;;;;16.77;65.56;98683.78;3101940;28;20062;-54
2022/01/04 03:29:19;;;;;;;8.27;5.82;;;;;;;16.75;65.70;98695.47;3095898;28;20100;-54
2022/01/04 03:30:51;;;;;;;7.63;5.35;;;;;;;16.74;65.74;98699.19;3097896;28;20061;-55
2022/01/04 03:32:23;;;;;;;8.20;5.07;;;;;;;16.72;65.74;98682.47;3093381;28;20875;-53
2022/01/04 03:33:55;;;;;;;6.38;4.45;;;;;;;16.73;65.82;98696.69;3099048;28;20419;-55
2022/01/04 03:35:27;;;;;;;12.38;7.13;;;;;;;16.73;65.73;98689.47;3097246;28;21321;-52
2022/01/04 03:37:00;;;;;;;8.88;5.53;;;;;;;16.73;65.74;98696.69;3099665;28;20053;-52
2022/01/04 03:38:32;;;;;;;8.23;5.45;;;;;;;16.71;65.75;98694.19;3096414;28;20050;-55
2022/01/04 03:40:06;;;;;;;7.47;4.97;;;;;;;16.73;65.72;98699.38;3095393;28;20408;-55
2022/01/04 03:41:39;;;;;;;6.38;4.38;;;;;;;16.70;65.83;98681.81;3098411;28;20050;-51
2022/01/04 03:43:11;;;;;;;8.73;5.10;;;;;;;16.71;65.69;98682.66;3096315;28;20077;-56
2022/01/04 03:44:43;;;;;;;7.53;5.15;;;;;;;16.69;65.76;98680.19;3095296;28;20739;-54
2022/01/04 03:46:15;;;;;;;7.82;4.65;;;;;;;16.69;65.73;98685.53;3097522;28;20103;-53
2022/01/04 03:47:47;;;;;;;9.32;6.00;;;;;;;16.69;65.81;98685.53;3096286;28;20054;-52
2022/01/04 03:49:19;;;;;;;8.98;6.32;;;;;;;16.68;65.75;98689.22;3097625;28;20061;-54
2022/01/04 03:50:51;;;;;;;8.95;5.93;;;;;;;16.68;65.83;98691.06;3095931;28;20053;-53
2022/01/04 03:52:24;;;;;;;5.82;4.40;;;;;;;16.67;65.79;98692.09;3094926;28;20042;-54
2022/01/04 03:53:56;;;;;;;8.65;5.95;;;;;;;16.65;65.91;98689.59;3099351;28;20052;-52
2022/01/04 03:55:28;;;;;;;7.57;4.93;;;;;;;16.64;65.91;98682.59;3096933;28;20112;-55
2022/01/04 03:57:00;;;;;;;9.07;5.65;;;;;;;16.65;65.79;98684.25;3098634;28;20069;-52
2022/01/04 03:58:31;;;;;;;6.47;4.95;;;;;;;16.63;65.80;98680.94;3096378;28;20057;-54
2022/01/04 04:00:04;;;;;;;7.20;4.93;;;;;;;16.63;65.81;98683.63;3093654;28;20046;-54
2022/01/04 04:01:36;;;;;;;7.68;5.03;;;;;;;16.63;65.82;98686.31;3099068;28;20297;-54
2022/01/04 04:03:08;;;;;;;9.43;5.20;;;;;;;16.61;65.82;98688.31;3097627;28;20810;-56
2022/01/04 04:04:40;;;;;;;9.05;5.88;;;;;;;16.63;65.94;98682.75;3096450;28;20061;-56
2022/01/04 04:06:12;;;;;;;7.22;5.00;;;;;;;16.64;65.78;98681.75;3097428;28;20077;-57
2022/01/04 04:07:46;;;;;;;8.18;5.03;;;;;;;16.64;65.82;98690.63;3100464;28;20080;-55
2022/01/04 04:09:17;;;;;;;6.97;5.13;;;;;;;16.64;65.86;98687.94;3093144;28;20054;-55
2022/01/04 04:10:48;;;;;;;8.93;4.38;;;;;;;16.63;65.88;98686.31;3095678;28;20049;-54
2022/01/04 04:12:21;;;;;;;6.55;5.22;;;;;;;16.64;65.89;98679.09;3095879;28;20056;-55
2022/01/04 04:13:53;;;;;;;8.07;5.10;;;;;;;16.65;66.00;98672.69;3089213;28;20047;-57
2022/01/04 04:15:25;;;;;;;9.82;5.70;;;;;;;16.65;66.04;98678.88;3092732;28;20095;-56
2022/01/04 04:16:57;;;;;;;7.18;5.28;;;;;;;16.66;65.99;98669.00;3095276;28;20050;-55
2022/01/04 04:18:28;;;;;;;7.32;5.25;;;;;;;16.66;65.85;98669.00;3095055;28;20548;-55
2022/01/04 04:20:00;;;;;;;6.78;4.18;;;;;;;16.66;66.02;98664.50;3102399;28;20049;-55
2022/01/04 04:21:33;;;;;;;6.25;4.03;;;;;;;16.67;65.98;98665.31;3095591;28;20526;-55
2022/01/04 04:23:07;;;;;;;6.18;4.82;;;;;;;16.68;65.92;98658.94;3096523;28;20077;-52
2022/01/04 04:24:39;;;;;;;6.47;5.05;;;;;;;16.68;65.88;98670.47;3093515;28;20038;-55
2022/01/04 04:26:11;;;;;;;7.35;5.00;;;;;;;16.67;65.89;98666.13;3098510;28;20625;-55
2022/01/04 04:27:43;;;;;;;8.93;5.28;;;;;;;16.69;65.79;98658.75;3098805;28;20056;-55
2022/01/04 04:29:15;;;;;;;6.80;4.88;;;;;;;16.67;66.06;98650.06;3100013;28;20575;-55
2022/01/04 04:30:47;;;;;;;7.18;4.90;;;;;;;16.69;65.97;98658.75;3098174;28;20054;-54
2022/01/04 04:32:19;;;;;;;7.10;4.78;;;;;;;16.69;65.90;98658.75;3088495;28;20051;-55
2022/01/04 04:33:51;;;;;;;6.95;4.80;;;;;;;16.70;65.88;98659.56;3095041;28;20574;-54
2022/01/04 04:35:23;;;;;;;7.55;4.40;;;;;;;16.70;65.83;98655.03;3097094;28;20046;-54
2022/01/04 04:36:55;;;;;;;6.57;4.90;;;;;;;16.70;65.95;98652.38;3098681;28;20057;-56
2022/01/04 04:38:29;;;;;;;7.93;5.07;;;;;;;16.69;65.80;98653.41;3099577;28;20056;-57
2022/01/04 04:40:01;;;;;;;7.63;4.63;;;;;;;16.70;66.05;98648.88;3095639;28;20054;-54
2022/01/04 04:41:32;;;;;;;8.38;4.55;;;;;;;16.70;65.91;98649.69;3095171;28;20108;-53
2022/01/04 04:43:05;;;;;;;8.05;5.22;;;;;;;16.69;65.89;98642.69;3100428;28;20041;-55
2022/01/04 04:44:37;;;;;;;7.53;4.72;;;;;;;16.69;65.91;98648.03;3094545;28;20050;-53
2022/01/04 04:46:09;;;;;;;5.95;4.55;;;;;;;16.70;65.94;98648.88;3098551;28;20983;-53
2022/01/04 04:47:41;;;;;;;6.43;4.45;;;;;;;16.70;65.99;98648.88;3098181;28;20099;-56
2022/01/04 04:49:13;;;;;;;7.88;5.20;;;;;;;16.71;65.86;98645.16;3090863;28;20049;-53
2022/01/04 04:50:45;;;;;;;5.60;4.63;;;;;;;16.70;66.04;98649.69;3098406;28;20477;-56
2022/01/04 04:52:17;;;;;;;5.38;4.82;;;;;;;16.70;65.82;98652.38;3095759;28;20052;-54
2022/01/04 04:53:50;;;;;;;7.53;4.63;;;;;;;16.69;65.90;98653.41;3096438;28;20057;-54
2022/01/04 04:55:22;;;;;;;7.38;4.25;;;;;;;16.69;65.81;98644.53;3094679;28;20108;-53
2022/01/04 04:56:54;;;;;;;9.63;5.00;;;;;;;16.69;65.88;98639.19;3095420;28;20046;-54
2022/01/04 04:58:26;;;;;;;7.00;5.03;;;;;;;16.70;65.89;98652.38;3096317;28;20054;-55
2022/01/04 04:59:57;;;;;;;8.77;5.20;;;;;;;16.70;65.92;98649.69;3097982;28;20489;-56
2022/01/04 05:01:29;;;;;;;6.57;5.82;;;;;;;16.70;65.83;98655.03;3097810;28;20057;-55
2022/01/04 05:03:01;;;;;;;6.63;4.63;;;;;;;16.71;65.88;98655.88;3099087;28;20080;-55
2022/01/04 05:04:33;;;;;;;7.68;5.10;;;;;;;16.69;65.88;98648.03;3096047;28;20045;-54
2022/01/04 05:06:05;;;;;;;7.50;4.20;;;;;;;16.71;65.78;98655.88;3100486;28;20054;-52
2022/01/04 05:07:37;;;;;;;6.30;4.82;;;;;;;16.72;65.76;98662.91;3093959;28;20510;-53
2022/01/04 05:09:11;;;;;;;8.45;4.90;;;;;;;16.72;65.85;98661.06;3096659;28;20141;-54
2022/01/04 05:10:43;;;;;;;6.15;4.43;;;;;;;16.74;65.78;98658.16;3098702;28;20073;-55
2022/01/04 05:12:14;;;;;;;6.40;4.32;;;;;;;16.79;65.81;98663.00;3093209;28;20184;-56
2022/01/04 05:13:46;;;;;;;6.13;4.97;;;;;;;16.84;65.68;98657.88;3098731;28;20053;-53
2022/01/04 05:15:18;;;;;;;6.30;4.78;;;;;;;16.88;65.65;98662.69;3095491;28;20049;-54
2022/01/04 05:16:50;;;;;;;8.95;5.95;;;;;;;16.93;65.61;98659.41;3100341;28;20157;-54
2022/01/04 05:18:22;;;;;;;7.00;4.43;;;;;;;16.98;65.60;98655.13;3095839;28;20125;-52
2022/01/04 05:19:54;;;;;;;6.07;4.40;;;;;;;17.03;65.39;98654.56;3092201;28;20057;-53
2022/01/04 05:21:26;;;;;;;8.43;5.05;;;;;;;17.08;65.39;98646.78;3094747;28;20416;-54
2022/01/04 05:22:57;;;;;;;6.22;4.32;;;;;;;17.12;65.45;98649.91;3096335;28;20053;-55
2022/01/04 05:24:34;;;;;;;6.55;4.32;;;;;;;17.17;65.40;98645.63;3098108;28;20163;-57
2022/01/04 05:26:06;;;;;;;5.53;4.35;;;;;;;17.22;65.21;98654.91;3093475;28;20695;-53
2022/01/04 05:27:38;;;;;;;8.75;4.70;;;;;;;17.26;65.12;98656.19;3095902;28;20043;-53
2022/01/04 05:29:10;;;;;;;6.50;5.07;;;;;;;17.28;65.19;98649.63;3098368;28;20096;-56
2022/01/04 05:30:42;;;;;;;7.75;4.38;;;;;;;17.31;65.04;98651.91;3098146;28;20108;-55
2022/01/04 05:32:14;;;;;;;6.45;4.57;;;;;;;17.33;65.08;98649.88;3096675;28;20534;-54
2022/01/04 05:33:45;;;;;;;6.68;4.75;;;;;;;17.35;65.09;98649.66;3095870;28;20053;-55
2022/01/04 05:35:17;;;;;;;7.68;4.85;;;;;;;17.37;65.04;98650.31;3095016;28;20397;-57
2022/01/04 05:36:49;;;;;;;4.45;3.75;;;;;;;17.41;65.16;98656.91;3096682;28;20041;-55
2022/01/04 05:38:21;;;;;;;6.53;4.47;;;;;;;17.42;65.01;98658.59;3095283;28;20104;-55
2022/01/04 05:39:55;;;;;;;8.45;4.70;;;;;;;17.45;64.94;98655.53;3099211;28;20041;-55
2022/01/04 05:41:27;;;;;;;6.82;4.45;;;;;;;17.47;64.85;98650.78;3092553;28;20249;-53
2022/01/04 05:42:59;;;;;;;6.28;4.97;;;;;;;17.49;64.81;98654.09;3099275;28;20054;-57
2022/01/04 05:44:31;;;;;;;5.28;3.63;;;;;;;17.50;64.84;98645.03;3097857;28;20788;-57
2022/01/04 05:46:03;;;;;;;6.15;3.85;;;;;;;17.52;64.67;98642.97;3099200;28;20050;-56
2022/01/04 05:47:35;;;;;;;7.45;5.28;;;;;;;17.54;64.59;98646.28;3099488;28;20050;-58
2022/01/04 05:49:06;;;;;;;5.78;4.05;;;;;;;17.55;64.71;98633.69;3098933;28;20042;-56
2022/01/04 05:50:39;;;;;;;7.47;4.93;;;;;;;17.56;64.72;98638.06;3095254;28;20054;-56
2022/01/04 05:52:11;;;;;;;7.35;4.75;;;;;;;17.56;64.68;98638.06;3094803;28;20124;-54
2022/01/04 05:53:43;;;;;;;5.88;3.75;;;;;;;17.57;64.72;98639.72;3097473;28;20055;-55
2022/01/04 05:55:16;;;;;;;5.05;3.97;;;;;;;17.57;64.77;98640.53;3090875;28;20046;-55
2022/01/04 05:56:48;;;;;;;6.88;4.05;;;;;;;17.57;64.74;98640.53;3096329;28;20061;-58
2022/01/04 05:58:20;;;;;;;6.47;4.22;;;;;;;17.59;64.79;98645.72;3092725;28;20054;-55
2022/01/04 05:59:52;;;;;;;5.63;4.07;;;;;;;17.59;64.68;98643.03;3102786;28;20064;-55
2022/01/04 06:01:24;;;;;;;7.05;4.40;;;;;;;17.60;64.56;98640.13;3089520;28;20049;-56
2022/01/04 06:02:58;;;;;;;6.93;4.43;;;;;;;17.59;64.65;98638.50;3098789;28;20062;-54
2022/01/04 06:04:30;;;;;;;4.40;3.88;;;;;;;17.60;64.69;98648.19;3098020;28;20846;-57
2022/01/04 06:06:03;;;;;;;7.32;3.90;;;;;;;17.59;64.53;98641.16;3092146;28;20823;-56
2022/01/04 06:07:35;;;;;;;6.43;4.22;;;;;;;17.59;64.65;98641.16;3092419;28;20133;-55
2022/01/04 06:09:09;;;;;;;7.05;4.65;;;;;;;17.60;64.67;98644.66;3095460;28;20108;-53
2022/01/04 06:10:44;;;;;;;5.63;4.32;;;;;;;17.62;64.69;98637.25;3095352;28;20050;-56
2022/01/04 06:15:54;;;;;;;8.43;4.63;;;;;;;17.60;64.59;98624.03;3095433;28;20085;-56
2022/01/04 06:17:29;;;;;;;6.10;4.30;;;;;;;17.60;64.66;98632.09;3095523;28;20050;-57
2022/01/04 06:19:01;;;;;;;4.55;3.55;;;;;;;17.61;64.56;98630.25;3096470;28;20054;-55
2022/01/04 06:20:33;;;;;;;5.43;4.10;;;;;;;17.60;64.53;98625.91;3095207;28;20049;-54
2022/01/04 06:22:05;;;;;;;9.05;5.18;;;;;;;17.61;64.70;98615.00;3099515;28;20046;-56
2022/01/04 06:23:37;;;;;;;6.15;4.03;;;;;;;17.61;64.58;98622.22;3092430;28;20060;-58
2022/01/04 06:25:12;;;;;;;5.95;4.10;;;;;;;17.60;64.47;98629.41;3090472;28;20047;-56
2022/01/04 06:26:46;;;;;;;4.68;3.88;;;;;;;17.60;64.50;98623.22;3095077;28;20046;-55
2022/01/04 06:28:17;;;;;;;5.10;3.58;;;;;;;17.59;64.70;98627.75;3097444;28;20101;-54
2022/01/04 06:29:50;;;;;;;4.85;3.47;;;;;;;17.59;64.73;98622.41;3099152;28;20104;-53
2022/01/04 06:31:22;;;;;;;5.68;3.95;;;;;;;17.58;64.67;98626.13;3096366;28;20136;-54
2022/01/04 06:32:54;;;;;;;4.57;3.10;;;;;;;17.60;64.53;98620.53;3094687;28;20045;-53
2022/01/04 06:34:26;;;;;;;8.20;4.05;;;;;;;17.59;64.67;98622.41;3093972;28;20077;-54
2022/01/04 06:35:57;;;;;;;6.53;3.97;;;;;;;17.58;64.75;98619.94;3093422;28;20117;-55
2022/01/04 06:37:29;;;;;;;6.00;3.95;;;;;;;17.56;64.69;98625.47;3092379;28;20050;-56
2022/01/04 06:39:01;;;;;;;5.80;3.75;;;;;;;17.56;64.52;98614.75;3094808;28;20043;-55
2022/01/04 06:40:33;;;;;;;5.28;3.83;;;;;;;17.56;64.54;98622.78;3092947;28;20543;-55
2022/01/04 06:42:07;;;;;;;6.80;4.43;;;;;;;17.56;64.72;98621.97;3095106;28;20070;-56
2022/01/04 06:43:39;;;;;;;4.95;3.40;;;;;;;17.56;64.59;98621.97;3092884;28;20038;-55
2022/01/04 06:45:13;;;;;;;7.15;4.28;;;;;;;17.56;64.56;98625.47;3092604;28;21079;-56
2022/01/04 06:46:45;;;;;;;7.97;3.75;;;;;;;17.58;64.74;98623.44;3096694;28;20050;-55
2022/01/04 06:48:17;;;;;;;6.15;4.15;;;;;;;17.57;64.69;98626.28;3091505;28;20046;-57
2022/01/04 06:49:49;;;;;;;6.22;4.15;;;;;;;17.58;64.68;98630.66;3091628;28;20076;-54
2022/01/04 06:51:21;;;;;;;5.35;3.72;;;;;;;17.56;64.59;98628.16;3091940;28;20468;-54
2022/01/04 06:52:53;;;;;;;5.43;3.38;;;;;;;17.57;64.61;98624.44;3093531;28;20535;-56
2022/01/04 06:54:25;;;;;;;4.65;3.40;;;;;;;17.56;64.61;98622.78;3093228;28;20046;-55
2022/01/04 06:55:57;;;;;;;7.22;3.72;;;;;;;17.57;64.59;98627.13;3092313;28;20042;-56
2022/01/04 06:57:30;;;;;;;5.85;3.45;;;;;;;17.57;64.68;98629.81;3090909;28;20049;-58
2022/01/04 06:59:02;;;;;;;7.15;4.40;;;;;;;17.57;64.65;98631.66;3088715;28;20679;-55
2022/01/04 07:00:34;;;;;;;5.90;3.72;;;;;;;17.58;64.67;98620.75;3062964;28;20555;-54
2022/01/04 07:02:06;;;;;;;5.88;3.33;;;;;;;17.58;64.84;98614.56;3098937;28;20065;-57
2022/01/04 07:03:38;;;;;;;5.68;3.85;;;;;;;17.58;64.66;98614.56;3087325;28;20100;-55
2022/01/04 07:05:10;;;;;;;7.22;4.10;;;;;;;17.57;64.61;98616.38;3088674;28;20326;-56
2022/01/04 07:06:42;;;;;;;6.18;3.55;;;;;;;17.57;64.56;98628.97;3091619;28;20072;-57
2022/01/04 07:08:13;;;;;;;4.25;3.20;;;;;;;17.57;64.69;98621.75;3089844;28;20065;-53
2022/01/04 07:09:45;;;;;;;6.63;3.97;;;;;;;17.57;64.76;98620.94;3088881;28;20058;-54
2022/01/04 07:11:17;;;;;;;5.53;3.40;;;;;;;17.56;64.67;98614.75;3091774;28;20050;-53
2022/01/04 07:12:50;;;;;;;5.22;3.55;;;;;;;17.55;64.70;98622.97;3088793;28;20057;-55
2022/01/04 07:14:22;;;;;;;4.05;3.20;;;;;;;17.55;64.67;98615.78;3089104;28;20132;-58
2022/01/04 07:15:54;;;;;;;5.40;3.53;;;;;;;17.56;64.76;98619.28;3089297;28;20077;-56
2022/01/04 07:17:27;;;;;;;5.85;4.60;;;;;;;17.54;64.79;98618.66;3089284;28;20647;-54